Time;durP1;ratioP1;P1;durP2;ratioP2;P2;SDS_P1;SDS_P2;PMS_P1;PMS_P2;Temp;Humidity;BMP_temperature;BMP_pressure;BME280_temperature;BME280_humidity;BME280_pressure;Samples;Min_cycle;Max_cycle;Signal;HPM_P1;HPM_P2
2023/04/21 00:01:28;;;;;;;24.33;17.20;;;9.30;99.90;;;;;;5045401;28;20226;-79
2023/04/21 00:03:55;;;;;;;22.88;17.17;;;9.30;99.90;;;;;;5058009;28;20103;-79
2023/04/21 00:06:25;;;;;;;19.55;16.30;;;9.30;99.90;;;;;;5058475;28;20120;-79
2023/04/21 00:08:51;;;;;;;21.10;15.32;;;9.30;99.90;;;;;;5056908;28;20139;-78
2023/04/21 00:11:17;;;;;;;18.80;16.63;;;9.30;99.90;;;;;;5038975;28;20052;-78
2023/04/21 00:13:43;;;;;;;21.92;16.70;;;9.30;99.90;;;;;;5040494;28;20040;-77
2023/04/21 00:16:08;;;;;;;19.70;15.95;;;9.20;99.90;;;;;;5047105;28;20055;-79
2023/04/21 00:18:34;;;;;;;20.30;16.15;;;9.20;99.90;;;;;;5044259;28;20057;-77
2023/04/21 00:21:00;;;;;;;19.33;16.33;;;9.20;99.90;;;;;;5058541;28;20563;-78
2023/04/21 00:23:25;;;;;;;21.02;16.27;;;9.10;99.90;;;;;;5055981;28;20067;-78
2023/04/21 00:25:52;;;;;;;26.73;16.40;;;9.10;99.90;;;;;;5048420;28;20828;-77
2023/04/21 00:28:18;;;;;;;20.52;16.27;;;9.10;99.90;;;;;;5046297;28;20049;-80
2023/04/21 00:30:43;;;;;;;19.63;15.27;;;9.10;99.90;;;;;;5056093;28;20088;-80
2023/04/21 00:33:09;;;;;;;19.75;15.88;;;9.00;99.90;;;;;;5048686;28;20068;-80
2023/04/21 00:35:35;;;;;;;23.45;16.67;;;9.00;99.90;;;;;;5076902;28;20100;-77
2023/04/21 00:38:00;;;;;;;18.35;15.25;;;9.00;99.90;;;;;;5039585;28;20045;-79
2023/04/21 00:40:26;;;;;;;21.27;16.95;;;9.00;99.90;;;;;;5049497;28;20130;-79
2023/04/21 00:42:52;;;;;;;21.17;16.98;;;8.90;99.90;;;;;;5046267;28;20080;-78
2023/04/21 00:45:18;;;;;;;18.15;16.17;;;8.90;99.90;;;;;;5057832;28;20056;-79
2023/04/21 00:47:43;;;;;;;21.35;16.33;;;8.90;99.90;;;;;;5059067;28;20111;-79
2023/04/21 00:50:10;;;;;;;24.98;16.90;;;8.80;99.90;;;;;;5057938;28;20044;-80
2023/04/21 00:52:38;;;;;;;22.83;16.05;;;8.80;99.90;;;;;;5051536;28;20041;-80
2023/04/21 00:55:04;;;;;;;21.50;16.88;;;8.80;99.90;;;;;;5058523;28;20137;-79
2023/04/21 00:57:31;;;;;;;22.08;15.77;;;8.80;99.90;;;;;;5059212;28;20049;-77
2023/04/21 00:59:56;;;;;;;22.45;16.80;;;8.80;99.90;;;;;;5057673;28;20090;-76
2023/04/21 01:02:23;;;;;;;25.75;16.83;;;8.70;99.90;;;;;;5057580;28;20058;-76
2023/04/21 01:04:48;;;;;;;21.40;15.10;;;8.70;99.90;;;;;;5058015;28;20088;-77
2023/04/21 01:07:14;;;;;;;19.90;16.95;;;8.70;99.90;;;;;;5054364;28;20124;-77
2023/04/21 01:09:40;;;;;;;18.58;16.08;;;8.70;99.90;;;;;;5059002;28;20109;-75
2023/04/21 01:12:10;;;;;;;20.80;15.80;;;8.70;99.90;;;;;;5060738;28;20087;-78
2023/04/21 01:14:37;;;;;;;22.10;17.15;;;8.70;99.90;;;;;;5057690;28;20069;-77
2023/04/21 01:17:04;;;;;;;20.05;15.88;;;8.60;99.90;;;;;;5058537;28;20059;-78
2023/04/21 01:19:35;;;;;;;19.67;15.07;;;8.60;99.90;;;;;;5060022;28;20059;-76
2023/04/21 01:22:03;;;;;;;20.80;15.88;;;8.60;99.90;;;;;;5058367;28;20067;-76
2023/04/21 01:24:43;;;;;;;21.88;15.23;;;8.60;99.90;;;;;;5061397;28;20063;-78
2023/04/21 01:27:14;;;;;;;19.67;15.90;;;8.60;99.90;;;;;;5050868;28;20045;-77
2023/04/21 01:29:42;;;;;;;20.38;16.00;;;8.50;99.90;;;;;;5042850;28;20049;-78
2023/04/21 01:32:10;;;;;;;20.35;16.08;;;8.50;99.90;;;;;;5057525;28;20124;-78
2023/04/21 01:34:37;;;;;;;17.25;15.38;;;8.50;99.90;;;;;;5058297;28;20533;-76
2023/04/21 01:37:06;;;;;;;17.02;15.23;;;8.50;99.90;;;;;;5060245;28;20089;-78
2023/04/21 01:39:31;;;;;;;18.77;15.32;;;8.50;99.90;;;;;;5056640;28;20127;-76
2023/04/21 01:41:57;;;;;;;23.17;15.98;;;8.50;99.90;;;;;;5057254;28;20036;-79
2023/04/21 01:44:24;;;;;;;21.08;15.50;;;8.50;99.90;;;;;;5056635;28;20077;-77
2023/04/21 01:46:50;;;;;;;22.55;16.17;;;8.50;99.90;;;;;;5051146;28;20049;-78
2023/04/21 01:49:16;;;;;;;20.45;15.30;;;8.50;99.90;;;;;;5046537;28;20098;-76
2023/04/21 01:51:42;;;;;;;21.27;14.82;;;8.50;99.90;;;;;;5054790;28;20094;-78
2023/04/21 01:54:08;;;;;;;21.75;16.45;;;8.50;99.90;;;;;;5049525;28;20171;-77
2023/04/21 01:56:34;;;;;;;20.08;14.90;;;8.40;99.90;;;;;;5050652;28;20138;-78
2023/04/21 01:59:01;;;;;;;21.33;15.70;;;8.40;99.90;;;;;;5056841;28;20056;-78
2023/04/21 02:01:27;;;;;;;21.15;15.48;;;8.40;99.90;;;;;;5052860;28;20131;-78
2023/04/21 02:03:52;;;;;;;22.63;16.40;;;7.50;99.90;;;;;;5050724;28;20652;-78
2023/04/21 02:06:18;;;;;;;24.58;17.02;;;8.30;99.90;;;;;;5058394;28;20753;-77
2023/04/21 02:08:44;;;;;;;26.25;17.27;;;8.30;99.90;;;;;;5050377;28;20174;-77
2023/04/21 02:11:09;;;;;;;21.60;16.23;;;8.30;99.90;;;;;;5053005;28;20052;-78
2023/04/21 02:13:35;;;;;;;24.17;17.02;;;8.30;99.90;;;;;;5061481;28;20132;-78
2023/04/21 02:16:01;;;;;;;22.10;16.38;;;8.30;99.90;;;;;;5027806;28;20788;-76
2023/04/21 02:18:28;;;;;;;20.13;16.25;;;8.20;99.90;;;;;;5073456;28;20080;-77
2023/04/21 02:20:55;;;;;;;20.85;16.92;;;8.20;99.90;;;;;;5074087;28;20078;-76
2023/04/21 02:23:21;;;;;;;19.30;15.98;;;8.20;99.90;;;;;;5043990;28;20048;-76
2023/04/21 02:25:47;;;;;;;21.83;16.23;;;8.20;99.90;;;;;;5050114;28;20041;-78
2023/04/21 02:28:12;;;;;;;22.85;16.45;;;8.20;99.90;;;;;;5041437;28;20654;-77
2023/04/21 02:30:38;;;;;;;26.30;17.13;;;8.20;99.90;;;;;;5051326;28;20188;-77
2023/04/21 02:33:04;;;;;;;20.38;16.65;;;8.20;99.90;;;;;;5049426;28;20086;-77
2023/04/21 02:35:30;;;;;;;19.95;17.25;;;8.20;99.90;;;;;;5060564;28;20060;-77
2023/04/21 02:37:55;;;;;;;22.13;17.63;;;8.20;99.90;;;;;;5051704;28;20056;-76
2023/04/21 02:40:21;;;;;;;20.98;17.50;;;8.20;99.90;;;;;;5056070;28;20044;-76
2023/04/21 02:42:47;;;;;;;20.45;16.60;;;8.10;99.90;;;;;;5051160;28;20045;-78
2023/04/21 02:45:13;;;;;;;21.70;16.35;;;8.10;99.90;;;;;;5059458;28;20047;-75
2023/04/21 02:47:38;;;;;;;26.33;17.70;;;8.10;99.90;;;;;;5041225;28;20048;-77
2023/04/21 02:50:05;;;;;;;25.55;17.75;;;8.10;99.90;;;;;;5041227;28;20121;-78
2023/04/21 02:52:35;;;;;;;31.17;18.38;;;8.10;99.90;;;;;;5055849;28;20048;-77
2023/04/21 02:55:02;;;;;;;25.42;18.38;;;8.00;99.90;;;;;;5059835;28;20131;-79
2023/04/21 02:57:27;;;;;;;24.90;17.92;;;8.00;99.90;;;;;;5046914;28;20063;-76
2023/04/21 02:59:53;;;;;;;26.63;18.67;;;8.00;99.90;;;;;;5054660;28;20052;-78
2023/04/21 03:02:19;;;;;;;22.90;16.75;;;8.00;99.90;;;;;;5057943;28;20119;-77
2023/04/21 03:04:44;;;;;;;21.88;17.08;;;8.00;99.90;;;;;;5049894;28;20642;-77
2023/04/21 03:07:12;;;;;;;19.75;17.13;;;8.00;99.90;;;;;;5058167;28;20041;-77
2023/04/21 03:09:38;;;;;;;21.17;17.08;;;8.00;99.90;;;;;;5051899;28;20052;-79
2023/04/21 03:12:04;;;;;;;19.27;16.95;;;7.90;99.90;;;;;;5048869;28;20055;-76
2023/04/21 03:14:30;;;;;;;21.65;16.75;;;7.90;99.90;;;;;;5047614;28;20045;-79
2023/04/21 03:16:55;;;;;;;21.65;17.52;;;7.90;99.90;;;;;;5052127;28;20122;-78
2023/04/21 03:19:21;;;;;;;21.35;17.48;;;7.90;99.90;;;;;;5057712;28;20056;-77
2023/04/21 03:21:47;;;;;;;21.55;16.70;;;7.90;99.90;;;;;;5051185;28;20055;-78
2023/04/21 03:24:12;;;;;;;19.65;16.98;;;8.00;99.90;;;;;;5052365;28;20040;-76
2023/04/21 03:26:39;;;;;;;23.98;17.30;;;7.90;99.90;;;;;;5055671;28;20052;-77
2023/04/21 03:29:05;;;;;;;19.52;16.70;;;7.90;99.90;;;;;;5049151;28;20040;-79
2023/04/21 03:31:31;;;;;;;23.63;15.95;;;7.90;99.90;;;;;;5058301;28;20041;-79
2023/04/21 03:33:56;;;;;;;21.55;16.77;;;7.90;99.90;;;;;;5059659;28;20049;-78
2023/04/21 03:36:22;;;;;;;18.83;15.95;;;7.90;99.90;;;;;;5040561;28;20044;-76
2023/04/21 03:38:48;;;;;;;19.83;15.68;;;7.90;99.90;;;;;;5044180;28;20045;-78
2023/04/21 03:41:14;;;;;;;18.70;15.30;;;8.00;99.90;;;;;;5050570;28;20512;-77
2023/04/21 03:43:39;;;;;;;19.58;16.65;;;8.00;99.90;;;;;;5051749;28;20145;-76
2023/04/21 03:46:05;;;;;;;17.20;13.43;;;8.00;99.90;;;;;;5055853;28;20053;-77
2023/04/21 03:48:31;;;;;;;21.38;15.77;;;8.00;99.90;;;;;;5055878;28;20486;-77
2023/04/21 03:50:57;;;;;;;21.70;15.30;;;8.00;99.90;;;;;;5043203;28;20141;-77
2023/04/21 03:53:22;;;;;;;23.63;16.42;;;8.00;99.90;;;;;;5051912;28;20045;-77
2023/04/21 03:55:51;;;;;;;18.70;15.43;;;8.00;99.90;;;;;;5043442;28;20044;-76
2023/04/21 03:58:17;;;;;;;18.05;15.30;;;8.00;99.90;;;;;;5041361;28;20063;-76
2023/04/21 04:00:43;;;;;;;18.88;13.65;;;8.00;99.90;;;;;;5041568;28;20044;-76
2023/04/21 04:03:08;;;;;;;22.38;15.25;;;8.10;99.90;;;;;;5040892;28;20826;-77
2023/04/21 04:05:35;;;;;;;22.50;16.20;;;8.20;99.90;;;;;;5047487;28;20068;-78
2023/04/21 04:08:01;;;;;;;24.13;14.93;;;8.20;99.90;;;;;;5051035;28;20547;-78
2023/04/21 04:10:26;;;;;;;19.35;15.43;;;8.20;99.90;;;;;;5060267;28;20053;-79
2023/04/21 04:12:54;;;;;;;20.10;15.93;;;8.20;99.90;;;;;;5052281;28;20113;-77
2023/04/21 04:15:19;;;;;;;20.98;15.30;;;8.10;99.90;;;;;;5053466;28;20478;-77
2023/04/21 04:17:45;;;;;;;24.15;14.80;;;8.10;99.90;;;;;;5053551;28;20071;-76
2023/04/21 04:20:11;;;;;;;24.73;16.05;;;8.20;99.90;;;;;;5048834;28;20037;-76
2023/04/21 04:22:37;;;;;;;19.25;14.63;;;8.20;99.90;;;;;;5058131;28;20128;-78
2023/04/21 04:25:04;;;;;;;22.50;16.15;;;8.10;99.90;;;;;;5053832;28;20123;-78
2023/04/21 04:27:30;;;;;;;19.60;14.88;;;8.20;99.90;;;;;;5050489;28;20120;-79
2023/04/21 04:29:56;;;;;;;16.10;13.40;;;8.20;99.90;;;;;;5051694;28;20055;-78
2023/04/21 04:32:22;;;;;;;19.17;13.45;;;8.20;99.90;;;;;;5058167;28;20044;-79
2023/04/21 04:34:47;;;;;;;23.42;15.90;;;8.20;99.90;;;;;;5056789;28;20114;-77
2023/04/21 04:37:13;;;;;;;21.77;15.10;;;8.20;99.90;;;;;;5056624;28;20048;-78
2023/04/21 04:39:39;;;;;;;19.00;15.48;;;8.20;99.90;;;;;;5093629;28;20048;-78
2023/04/21 04:42:08;;;;;;;21.40;15.02;;;8.20;99.90;;;;;;5055819;28;20862;-78
2023/04/21 04:44:34;;;;;;;20.67;15.07;;;8.20;99.90;;;;;;5031141;28;20420;-76
2023/04/21 04:47:00;;;;;;;20.40;15.98;;;8.20;99.90;;;;;;5058655;28;20044;-76
2023/04/21 04:49:25;;;;;;;22.75;15.85;;;8.20;99.90;;;;;;5059261;28;20048;-77
2023/04/21 04:51:51;;;;;;;20.00;14.98;;;8.30;99.90;;;;;;5054336;28;20048;-77
2023/04/21 04:54:17;;;;;;;21.33;16.05;;;8.30;99.90;;;;;;5056205;28;20073;-78
2023/04/21 04:56:42;;;;;;;18.48;16.02;;;8.30;99.90;;;;;;5057438;28;20139;-77
2023/04/21 04:59:08;;;;;;;19.08;17.02;;;8.30;99.90;;;;;;5057942;28;20781;-76
2023/04/21 05:01:36;;;;;;;21.02;17.50;;;8.40;99.90;;;;;;5057125;28;20044;-76
2023/04/21 05:04:03;;;;;;;26.50;18.23;;;8.40;99.90;;;;;;5052922;28;20044;-75
2023/04/21 05:06:29;;;;;;;25.65;19.88;;;8.40;99.90;;;;;;5038913;28;20048;-77
2023/04/21 05:08:55;;;;;;;24.17;18.23;;;8.40;99.90;;;;;;5053796;28;20512;-78
2023/04/21 05:11:21;;;;;;;21.05;16.30;;;8.40;99.90;;;;;;5040118;28;20048;-77
2023/04/21 05:13:46;;;;;;;20.17;17.13;;;8.40;99.90;;;;;;5045187;28;20055;-76
2023/04/21 05:16:12;;;;;;;20.83;17.23;;;8.40;99.90;;;;;;5040974;28;20044;-77
2023/04/21 05:18:38;;;;;;;23.92;20.25;;;8.40;99.90;;;;;;5054013;28;21139;-77
2023/04/21 05:21:04;;;;;;;27.55;19.05;;;8.50;99.90;;;;;;5038540;28;20052;-76
2023/04/21 05:23:29;;;;;;;26.08;18.75;;;8.50;99.90;;;;;;5052828;28;20049;-79
2023/04/21 05:25:55;;;;;;;23.65;20.23;;;8.60;99.90;;;;;;5043477;28;20697;-76
2023/04/21 05:28:22;;;;;;;25.98;20.23;;;8.60;99.90;;;;;;5055802;28;20048;-76
2023/04/21 05:30:47;;;;;;;23.42;18.92;;;8.60;99.90;;;;;;5042675;28;20045;-75
2023/04/21 05:33:13;;;;;;;21.33;17.73;;;8.70;99.90;;;;;;5056987;28;20049;-77
2023/04/21 05:35:39;;;;;;;21.55;18.52;;;8.70;99.90;;;;;;5058308;28;20568;-77
2023/04/21 05:38:05;;;;;;;26.17;18.20;;;8.70;99.90;;;;;;5051695;28;20056;-76
2023/04/21 05:40:31;;;;;;;20.42;16.77;;;8.80;99.90;;;;;;5060666;28;20084;-78
2023/04/21 05:42:56;;;;;;;20.35;16.15;;;8.80;99.90;;;;;;5051990;28;20123;-77
2023/04/21 05:45:22;;;;;;;20.08;15.82;;;8.90;99.90;;;;;;5060234;28;20041;-76
2023/04/21 05:47:48;;;;;;;21.02;15.93;;;8.90;99.90;;;;;;5052966;28;20044;-76
2023/04/21 05:50:13;;;;;;;25.52;18.10;;;9.00;99.90;;;;;;5059340;28;20044;-77
2023/04/21 05:52:39;;;;;;;21.42;16.52;;;9.00;99.90;;;;;;5053883;28;20040;-78
2023/04/21 05:55:05;;;;;;;22.75;15.45;;;9.00;99.90;;;;;;5049074;28;20185;-76
2023/04/21 05:57:31;;;;;;;17.75;13.13;;;9.10;99.90;;;;;;5053376;28;20528;-78
2023/04/21 05:59:57;;;;;;;24.02;14.77;;;9.20;99.90;;;;;;5057291;28;20052;-76
2023/04/21 06:02:23;;;;;;;18.02;13.68;;;9.20;99.90;;;;;;5056385;28;20049;-75
2023/04/21 06:04:48;;;;;;;24.15;14.82;;;9.30;99.90;;;;;;5058066;28;20060;-76
2023/04/21 06:07:16;;;;;;;16.35;13.25;;;9.30;99.90;;;;;;5055383;28;20044;-78
2023/04/21 06:09:42;;;;;;;15.30;12.90;;;9.40;99.90;;;;;;5057346;28;20052;-79
2023/04/21 06:12:08;;;;;;;17.52;12.43;;;9.40;99.90;;;;;;5053320;28;20713;-79
2023/04/21 06:14:33;;;;;;;18.75;12.52;;;9.50;99.90;;;;;;5055817;28;20854;-77
2023/04/21 06:16:59;;;;;;;20.70;12.48;;;9.60;99.90;;;;;;5061353;28;20131;-80
2023/04/21 06:19:25;;;;;;;17.92;12.40;;;9.70;99.90;;;;;;5060021;28;20048;-81
2023/04/21 06:21:51;;;;;;;17.77;12.00;;;9.80;99.90;;;;;;5050169;28;20591;-81
2023/04/21 06:24:23;;;;;;;20.00;11.85;;;9.90;99.90;;;;;;5051168;28;20040;-81
2023/04/21 06:26:52;;;;;;;14.38;11.55;;;9.90;99.90;;;;;;5044496;28;20095;-79
2023/04/21 06:29:19;;;;;;;16.15;12.77;;;10.00;99.90;;;;;;5056549;28;20258;-79
2023/04/21 06:31:44;;;;;;;15.02;10.98;;;10.10;99.90;;;;;;5051318;28;20048;-79
2023/04/21 06:34:10;;;;;;;17.05;12.32;;;10.20;99.90;;;;;;5059485;28;20052;-76
2023/04/21 06:36:36;;;;;;;15.52;11.52;;;9.70;99.90;;;;;;5060972;28;20056;-82
2023/04/21 06:39:03;;;;;;;16.13;11.68;;;10.40;99.90;;;;;;5060564;28;20550;-79
2023/04/21 06:41:29;;;;;;;16.80;11.40;;;10.50;99.90;;;;;;5056687;28;20125;-80
2023/04/21 06:43:55;;;;;;;14.68;9.85;;;10.60;99.90;;;;;;5059845;28;20044;-75
2023/04/21 06:46:20;;;;;;;15.32;11.38;;;10.70;99.90;;;;;;5054874;28;20060;-79
2023/04/21 06:48:46;;;;;;;13.85;10.77;;;10.80;99.90;;;;;;5040720;28;20549;-78
2023/04/21 06:51:12;;;;;;;14.75;11.32;;;11.00;99.90;;;;;;5048186;28;20508;-79
2023/04/21 06:53:37;;;;;;;21.15;11.98;;;11.10;99.90;;;;;;5060796;28;20754;-81
2023/04/21 06:56:03;;;;;;;16.08;9.32;;;11.30;99.90;;;;;;5045049;28;20084;-80
2023/04/21 06:58:29;;;;;;;14.27;10.20;;;11.60;99.90;;;;;;5052811;28;20472;-78
2023/04/21 07:00:54;;;;;;;15.50;10.57;;;11.70;99.90;;;;;;5065145;28;20484;-78
2023/04/21 07:03:20;;;;;;;11.02;8.95;;;12.10;99.90;;;;;;5049186;28;20044;-79
2023/04/21 07:05:46;;;;;;;10.43;7.55;;;13.00;99.90;;;;;;5058578;28;20071;-79
2023/04/21 07:08:12;;;;;;;15.07;9.50;;;14.30;99.90;;;;;;5058864;28;20048;-80
2023/04/21 07:10:38;;;;;;;12.55;7.82;;;15.30;99.90;;;;;;5044872;28;20113;-80
2023/04/21 07:13:03;;;;;;;8.45;6.20;;;16.10;99.90;;;;;;5050013;28;20044;-81
2023/04/21 07:15:29;;;;;;;10.05;7.80;;;16.60;99.90;;;;;;5055610;28;20041;-79
2023/04/21 07:17:55;;;;;;;11.38;7.68;;;17.10;99.90;;;;;;5050512;28;20811;-77
2023/04/21 07:20:20;;;;;;;12.98;7.95;;;17.30;99.90;;;;;;5058220;28;20044;-81
2023/04/21 07:22:46;;;;;;;12.35;7.50;;;17.80;99.90;;;;;;5049691;28;20068;-80
2023/04/21 07:25:13;;;;;;;15.18;9.38;;;18.10;99.90;;;;;;5056211;28;20075;-80
2023/04/21 07:27:39;;;;;;;14.10;7.57;;;18.30;99.90;;;;;;5061276;28;20151;-79
2023/04/21 07:30:05;;;;;;;6.72;6.00;;;18.60;99.90;;;;;;5057950;28;20925;-78
2023/04/21 07:32:32;;;;;;;7.75;5.47;;;18.70;99.90;;;;;;5059807;28;20378;-80
2023/04/21 07:34:58;;;;;;;11.38;7.32;;;18.70;99.90;;;;;;5055565;28;20514;-79
2023/04/21 07:37:23;;;;;;;9.27;6.32;;;18.70;99.80;;;;;;5059778;28;20131;-80
2023/04/21 07:39:49;;;;;;;12.07;6.68;;;18.90;99.70;;;;;;5060220;28;20075;-79
2023/04/21 07:42:15;;;;;;;11.85;6.97;;;18.80;98.50;;;;;;5059006;28;20572;-78
2023/04/21 07:44:41;;;;;;;12.35;6.95;;;18.70;98.20;;;;;;5059030;28;20123;-80
2023/04/21 07:47:06;;;;;;;12.63;7.10;;;18.70;97.90;;;;;;5045814;28;20144;-79
2023/04/21 07:49:32;;;;;;;8.88;7.40;;;18.90;98.00;;;;;;5059284;28;20225;-80
2023/04/21 07:51:58;;;;;;;10.48;7.40;;;19.20;98.60;;;;;;5056113;28;20104;-77
2023/04/21 07:54:23;;;;;;;9.80;7.70;;;19.30;98.00;;;;;;5041611;28;20375;-80
2023/04/21 07:56:49;;;;;;;10.48;7.80;;;19.50;98.10;;;;;;5053611;28;20202;-79
2023/04/21 07:59:15;;;;;;;10.35;7.55;;;19.70;97.40;;;;;;5048721;28;20238;-77
2023/04/21 08:01:40;;;;;;;10.45;6.22;;;19.80;97.10;;;;;;5057754;28;20053;-78
2023/04/21 08:04:06;;;;;;;10.85;7.25;;;19.70;95.80;;;;;;5049122;28;20049;-83
2023/04/21 08:06:32;;;;;;;10.77;7.43;;;19.40;96.10;;;;;;5063098;28;20554;-81
2023/04/21 08:08:58;;;;;;;10.48;6.85;;;19.40;95.90;;;;;;5057302;28;20056;-80
2023/04/21 08:11:23;;;;;;;10.98;8.05;;;19.40;95.90;;;;;;5061495;28;20049;-81
2023/04/21 08:13:50;;;;;;;9.90;6.68;;;19.50;96.40;;;;;;5050897;28;20047;-79
2023/04/21 08:16:16;;;;;;;6.75;5.10;;;19.60;95.90;;;;;;5051079;28;20084;-78
2023/04/21 08:18:41;;;;;;;12.60;7.68;;;19.70;95.50;;;;;;5056313;28;20170;-81
2023/04/21 08:21:07;;;;;;;11.73;7.47;;;19.60;95.20;;;;;;5054825;28;20045;-82
2023/04/21 08:23:33;;;;;;;11.60;7.72;;;19.80;95.60;;;;;;5052870;28;20153;-79
2023/04/21 08:26:00;;;;;;;11.77;7.95;;;20.00;96.20;;;;;;5063166;28;20049;-78
2023/04/21 08:28:26;;;;;;;11.63;6.75;;;19.60;95.60;;;;;;5056602;28;20056;-80
2023/04/21 08:30:52;;;;;;;8.00;6.05;;;19.80;95.60;;;;;;5059036;28;20063;-80
2023/04/21 08:33:18;;;;;;;11.38;5.78;;;20.00;94.90;;;;;;5048554;28;20394;-79
2023/04/21 08:35:43;;;;;;;9.52;6.68;;;20.00;94.80;;;;;;5060551;28;20549;-78
2023/04/21 08:38:09;;;;;;;11.20;7.68;;;20.10;95.40;;;;;;5050218;28;20044;-81
2023/04/21 08:40:37;;;;;;;10.80;6.47;;;20.00;94.40;;;;;;5051477;28;20575;-81
2023/04/21 08:43:07;;;;;;;9.45;7.10;;;20.00;94.20;;;;;;5059970;28;20083;-83
2023/04/21 08:45:33;;;;;;;8.85;7.70;;;20.00;94.40;;;;;;5050712;28;20844;-83
2023/04/21 08:48:01;;;;;;;11.85;7.25;;;20.10;94.70;;;;;;5044620;28;20048;-77
2023/04/21 08:50:29;;;;;;;14.38;8.02;;;20.30;94.00;;;;;;5049524;28;20053;-79
2023/04/21 08:52:55;;;;;;;9.50;7.25;;;20.20;93.80;;;;;;5042660;28;20048;-77
2023/04/21 08:55:28;;;;;;;14.10;7.85;;;20.20;93.90;;;;;;5059815;28;20044;-81
2023/04/21 08:57:53;;;;;;;13.30;6.20;;;20.30;94.00;;;;;;5055903;28;20145;-78
2023/04/21 09:00:20;;;;;;;9.60;6.20;;;20.30;93.80;;;;;;5056275;28;20116;-77
2023/04/21 09:02:56;;;;;;;10.23;7.05;;;20.30;93.70;;;;;;5057232;28;20044;-77
2023/04/21 09:05:24;;;;;;;9.38;7.95;;;20.30;93.60;;;;;;5060562;28;20251;-79
2023/04/21 09:07:51;;;;;;;8.48;7.38;;;20.20;93.40;;;;;;5060151;28;20052;-79
2023/04/21 09:10:25;;;;;;;9.48;6.82;;;20.30;93.80;;;;;;5058418;28;20106;-80
2023/04/21 09:12:53;;;;;;;10.13;7.43;;;20.60;93.60;;;;;;5041776;28;20381;-78
2023/04/21 09:15:21;;;;;;;12.25;8.30;;;20.50;93.10;;;;;;5049936;28;20049;-81
2023/04/21 09:17:53;;;;;;;12.95;7.93;;;20.50;93.40;;;;;;5051823;28;20056;-77
2023/04/21 09:20:21;;;;;;;10.80;7.15;;;20.70;93.40;;;;;;5060565;28;20059;-80
2023/04/21 09:22:50;;;;;;;12.73;8.30;;;20.90;93.60;;;;;;5058587;28;20131;-79
2023/04/21 09:25:19;;;;;;;12.35;7.78;;;20.90;93.20;;;;;;5051650;28;20109;-77
2023/04/21 09:27:46;;;;;;;10.73;7.68;;;21.00;93.40;;;;;;5047904;28;20059;-80
2023/04/21 09:30:12;;;;;;;12.73;6.18;;;21.10;93.10;;;;;;5051385;28;20124;-82
2023/04/21 09:32:41;;;;;;;10.57;8.05;;;21.00;92.50;;;;;;5059723;28;20045;-85
2023/04/21 09:35:11;;;;;;;11.02;8.32;;;21.20;92.90;;;;;;5055507;28;20049;-76
2023/04/21 09:37:37;;;;;;;10.63;7.40;;;21.20;92.60;;;;;;5057455;28;20052;-79
2023/04/21 09:40:04;;;;;;;10.32;7.43;;;21.20;92.40;;;;;;5036466;28;20393;-76
2023/04/21 09:42:32;;;;;;;11.32;7.28;;;21.10;92.30;;;;;;5050306;28;20187;-79
2023/04/21 09:44:58;;;;;;;14.32;7.90;;;21.00;92.50;;;;;;5058116;28;20052;-79
2023/04/21 09:47:28;;;;;;;8.57;6.97;;;21.10;91.90;;;;;;5048269;28;20475;-83
2023/04/21 09:49:54;;;;;;;11.10;7.80;;;21.10;91.80;;;;;;5053637;28;20064;-79
2023/04/21 09:52:20;;;;;;;16.65;8.07;;;21.20;91.70;;;;;;5051325;28;20044;-80
2023/04/21 09:54:53;;;;;;;9.63;7.22;;;21.30;92.00;;;;;;5060442;28;20044;-79
2023/04/21 09:57:25;;;;;;;12.60;8.60;;;21.30;91.90;;;;;;5055481;28;20057;-77
2023/04/21 09:59:59;;;;;;;13.77;9.30;;;21.50;92.10;;;;;;5056108;28;20059;-77
2023/04/21 10:02:28;;;;;;;10.52;7.35;;;21.50;91.30;;;;;;5057077;28;20844;-78
2023/04/21 10:04:54;;;;;;;17.13;8.27;;;21.40;91.30;;;;;;5051556;28;20052;-78
2023/04/21 10:07:20;;;;;;;10.25;7.40;;;21.00;91.80;;;;;;5055558;28;20041;-80
2023/04/21 10:09:54;;;;;;;12.90;8.07;;;20.90;92.10;;;;;;5048317;28;20490;-76
2023/04/21 10:12:21;;;;;;;9.40;8.07;;;21.30;92.40;;;;;;5056755;28;20045;-78
2023/04/21 10:14:54;;;;;;;9.45;8.00;;;21.50;91.50;;;;;;5052791;28;20400;-81
2023/04/21 10:17:25;;;;;;;10.23;6.28;;;21.90;91.70;;;;;;5058172;28;20093;-79
2023/04/21 10:19:53;;;;;;;13.63;7.55;;;22.00;91.10;;;;;;5049936;28;20498;-81
2023/04/21 10:22:35;;;;;;;11.88;7.13;;;22.20;90.90;;;;;;5047108;28;20109;-78
2023/04/21 10:25:03;;;;;;;12.55;8.55;;;21.90;89.60;;;;;;5057312;28;20052;-78
2023/04/21 10:27:35;;;;;;;11.13;7.68;;;22.00;90.40;;;;;;5060621;28;20044;-80
2023/04/21 10:30:17;;;;;;;14.43;7.90;;;22.30;90.00;;;;;;5050047;28;20071;-78
2023/04/21 10:32:44;;;;;;;9.85;7.63;;;22.30;89.00;;;;;;5045139;28;20554;-79
2023/04/21 10:35:16;;;;;;;12.50;8.73;;;22.20;89.10;;;;;;5060916;28;20044;-79
2023/04/21 10:37:42;;;;;;;10.73;6.83;;;22.30;89.40;;;;;;5060046;28;20048;-79
2023/04/21 10:40:35;;;;;;;12.38;8.00;;;22.30;89.10;;;;;;5060939;28;20433;-72
2023/04/21 10:43:05;;;;;;;10.80;6.90;;;22.30;89.70;;;;;;5051053;28;20053;-72
2023/04/21 10:45:31;;;;;;;8.93;6.75;;;22.20;88.50;;;;;;5052639;28;20817;-73
2023/04/21 10:48:01;;;;;;;9.77;7.63;;;22.10;89.00;;;;;;5061514;28;20044;-79
2023/04/21 10:50:30;;;;;;;9.82;7.15;;;21.80;88.90;;;;;;5059219;28;20056;-80
2023/04/21 10:53:06;;;;;;;10.05;6.72;;;21.70;89.30;;;;;;5058357;28;20074;-82
2023/04/21 10:55:32;;;;;;;10.15;7.72;;;21.40;89.00;;;;;;5057405;28;20052;-79
2023/04/21 10:58:02;;;;;;;11.52;7.18;;;20.70;89.90;;;;;;5061388;28;20936;-80
2023/04/21 11:00:28;;;;;;;12.15;7.15;;;20.40;89.80;;;;;;5038132;28;20542;-77
2023/04/21 11:03:02;;;;;;;12.32;6.78;;;20.30;90.60;;;;;;5058923;28;20143;-80
2023/04/21 11:05:39;;;;;;;11.30;7.55;;;20.30;90.30;;;;;;5058125;28;20044;-77
2023/04/21 11:08:13;;;;;;;9.00;7.28;;;20.30;90.10;;;;;;5056256;28;20048;-77
2023/04/21 11:10:53;;;;;;;9.23;7.03;;;20.20;90.80;;;;;;5045240;28;20082;-80
2023/04/21 11:13:32;;;;;;;9.13;6.07;;;20.10;90.60;;;;;;5051862;28;20056;-76
2023/04/21 11:16:04;;;;;;;9.95;6.00;;;20.10;90.60;;;;;;5046069;28;20060;-79
2023/04/21 11:18:36;;;;;;;7.28;5.25;;;20.30;90.50;;;;;;5048809;28;20059;-78
2023/04/21 11:21:19;;;;;;;11.80;5.83;;;20.20;90.50;;;;;;5053871;28;20042;-80
2023/04/21 11:23:49;;;;;;;9.75;6.00;;;20.40;89.60;;;;;;5059496;28;20045;-80
2023/04/21 11:26:16;;;;;;;6.40;4.32;;;20.50;90.00;;;;;;5052778;28;20115;-76
2023/04/21 11:28:42;;;;;;;9.20;5.78;;;20.60;90.10;;;;;;5052493;28;20056;-78
2023/04/21 11:31:08;;;;;;;7.32;5.65;;;20.60;89.60;;;;;;5045737;28;20401;-77
2023/04/21 11:33:38;;;;;;;6.28;4.03;;;20.60;88.20;;;;;;5039852;28;20049;-76
2023/04/21 11:36:06;;;;;;;5.68;4.30;;;20.70;86.10;;;;;;5057299;28;20055;-76
2023/04/21 11:38:41;;;;;;;8.60;4.05;;;20.60;85.20;;;;;;5059670;28;20045;-78
2023/04/21 11:41:09;;;;;;;6.80;3.90;;;20.50;84.10;;;;;;5040740;28;20036;-79
2023/04/21 11:43:36;;;;;;;7.63;3.70;;;20.40;84.40;;;;;;5047379;28;20036;-78
2023/04/21 11:46:11;;;;;;;7.53;4.22;;;20.50;84.70;;;;;;5046810;28;20060;-78
2023/04/21 11:48:37;;;;;;;6.65;3.22;;;20.50;83.90;;;;;;5057140;28;20909;-77
2023/04/21 11:51:03;;;;;;;8.70;3.67;;;20.60;83.40;;;;;;5039984;28;20151;-79
2023/04/21 11:53:28;;;;;;;14.35;4.68;;;20.50;83.20;;;;;;5046124;28;20048;-77
2023/04/21 11:55:55;;;;;;;11.25;4.88;;;20.50;83.30;;;;;;5055181;28;20049;-78
2023/04/21 11:58:21;;;;;;;12.00;4.75;;;20.40;82.20;;;;;;5083878;28;20083;-76
2023/04/21 12:00:49;;;;;;;6.18;4.32;;;20.40;83.30;;;;;;5048595;28;20127;-79
2023/04/21 12:03:15;;;;;;;9.88;5.10;;;20.40;83.30;;;;;;5057397;28;20048;-77
2023/04/21 12:05:40;;;;;;;9.82;5.20;;;20.60;83.20;;;;;;5037948;28;20402;-77
2023/04/21 12:08:13;;;;;;;5.28;3.40;;;20.60;81.90;;;;;;5047782;28;20524;-79
2023/04/21 12:10:43;;;;;;;11.68;3.75;;;20.40;81.70;;;;;;5043853;28;20052;-76
2023/04/21 12:13:09;;;;;;;10.73;4.20;;;20.20;82.50;;;;;;5048464;28;20041;-76
2023/04/21 12:15:35;;;;;;;13.57;4.68;;;20.10;82.30;;;;;;5051068;28;20809;-80
2023/04/21 12:18:00;;;;;;;9.10;4.60;;;20.30;80.80;;;;;;5047589;28;20102;-79
2023/04/21 12:20:28;;;;;;;7.20;4.40;;;20.50;82.70;;;;;;5051578;28;20084;-81
2023/04/21 12:22:55;;;;;;;5.88;3.65;;;20.70;82.40;;;;;;5053844;28;20056;-79
2023/04/21 12:25:21;;;;;;;9.57;4.20;;;20.90;82.00;;;;;;5041736;28;20147;-80
2023/04/21 12:27:57;;;;;;;8.70;3.95;;;21.00;83.00;;;;;;5045915;28;20059;-80
2023/04/21 12:30:23;;;;;;;6.63;3.50;;;21.00;81.40;;;;;;5057593;28;20048;-81
2023/04/21 12:32:50;;;;;;;6.07;4.05;;;20.90;80.10;;;;;;5047506;28;20485;-77
2023/04/21 12:35:16;;;;;;;7.00;4.82;;;20.80;80.10;;;;;;5086313;28;20079;-79
2023/04/21 12:37:43;;;;;;;10.18;4.05;;;21.00;81.20;;;;;;5054255;28;20677;-83